Time,TemperatureF,DewpointF,PressureIn,WindDirection,WindDirectionDegrees,WindSpeedMPH,WindSpeedGustMPH,Humidity,HourlyPrecipIn,Conditions,Clouds,dailyrainin,SolarRadiationWatts/m^2,SoftwareType,DateUTC
2013-05-12 00:01:00,47.8,46.0,30.11,NW,306,0.0,0.0,93,0.00,,,0.00,0,weatherlink.com 1.10,2013-05-12 07:01:00,
2013-05-12 00:16:00,47.5,46.0,30.11,NW,306,0.0,0.0,93,0.00,,,0.00,0,weatherlink.com 1.10,2013-05-12 07:16:00,
2013-05-12 00:31:00,47.1,45.0,30.11,NW,306,0.0,0.0,93,0.00,,,0.00,0,weatherlink.com 1.10,2013-05-12 07:31:00,
2013-05-12 00:46:00,46.9,45.0,30.11,NW,306,0.0,0.0,93,0.00,,,0.00,0,weatherlink.com 1.10,2013-05-12 07:46:00,
2013-05-12 01:01:00,46.6,45.0,30.11,NW,306,0.0,0.0,93,0.00,,,0.00,0,weatherlink.com 1.10,2013-05-12 08:01:00,
2013-05-12 01:16:00,46.6,45.0,30.11,NW,306,0.0,0.0,94,0.00,,,0.00,0,weatherlink.com 1.10,2013-05-12 08:16:00,
2013-05-12 01:31:00,46.3,44.0,30.11,NW,306,0.0,0.0,93,0.00,,,0.00,0,weatherlink.com 1.10,2013-05-12 08:31:00,
2013-05-12 01:46:00,46.4,45.0,30.11,NW,306,0.0,1.0,94,0.00,,,0.00,0,weatherlink.com 1.10,2013-05-12 08:46:00,
2013-05-12 02:01:00,45.8,44.0,30.10,NW,306,0.0,0.0,94,0.00,,,0.00,0,weatherlink.com 1.10,2013-05-12 09:01:00,
2013-05-12 02:16:00,45.0,43.0,30.10,NW,306,0.0,0.0,93,0.00,,,0.00,0,weatherlink.com 1.10,2013-05-12 09:16:00,
2013-05-12 02:31:00,44.5,43.0,30.10,NW,306,0.0,0.0,94,0.00,,,0.00,0,weatherlink.com 1.10,2013-05-12 09:31:00,
2013-05-12 02:46:00,44.0,42.0,30.10,NW,306,0.0,0.0,94,0.00,,,0.00,0,weatherlink.com 1.10,2013-05-12 09:46:00,
2013-05-12 03:01:00,43.6,42.0,30.10,NW,306,0.0,0.0,94,0.00,,,0.00,0,weatherlink.com 1.10,2013-05-12 10:01:00,
2013-05-12 03:16:00,43.7,42.0,30.10,NW,306,0.0,0.0,94,0.00,,,0.00,0,weatherlink.com 1.10,2013-05-12 10:16:00,
2013-05-12 03:31:00,43.6,42.0,30.10,NW,306,0.0,0.0,94,0.00,,,0.00,0,weatherlink.com 1.10,2013-05-12 10:31:00,
2013-05-12 03:46:00,43.8,42.0,30.10,NW,306,0.0,0.0,94,0.00,,,0.00,0,weatherlink.com 1.10,2013-05-12 10:46:00,
2013-05-12 04:01:00,43.3,42.0,30.10,NW,306,0.0,0.0,94,0.00,,,0.00,0,weatherlink.com 1.10,2013-05-12 11:01:00,
2013-05-12 04:16:00,43.5,42.0,30.10,NW,306,0.0,0.0,94,0.00,,,0.00,0,weatherlink.com 1.10,2013-05-12 11:16:00,
2013-05-12 04:31:00,43.0,41.0,30.10,NW,306,0.0,0.0,94,0.00,,,0.00,0,weatherlink.com 1.10,2013-05-12 11:31:00,
2013-05-12 04:46:00,42.8,41.0,30.10,NW,306,0.0,0.0,94,0.00,,,0.00,0,weatherlink.com 1.10,2013-05-12 11:46:00,
2013-05-12 05:01:00,42.9,41.0,30.10,NW,306,0.0,0.0,94,0.00,,,0.00,0,weatherlink.com 1.10,2013-05-12 12:01:00,
2013-05-12 05:16:00,42.6,41.0,30.10,NW,306,0.0,0.0,94,0.00,,,0.00,0,weatherlink.com 1.10,2013-05-12 12:16:00,
2013-05-12 05:31:00,42.3,41.0,30.11,NW,306,0.0,0.0,94,0.00,,,0.00,0,weatherlink.com 1.10,2013-05-12 12:31:00,
2013-05-12 05:47:00,42.1,41.0,30.11,NW,306,0.0,0.0,95,0.00,,,0.00,0,weatherlink.com 1.10,2013-05-12 12:47:00,
2013-05-12 06:02:00,42.5,41.0,30.11,NW,306,0.0,0.0,95,0.00,,,0.00,0,weatherlink.com 1.10,2013-05-12 13:02:00,
2013-05-12 06:17:00,42.0,41.0,30.11,NW,306,0.0,0.0,95,0.00,,,0.00,7,weatherlink.com 1.10,2013-05-12 13:17:00,
2013-05-12 06:47:00,42.5,41.0,30.11,NW,306,0.0,0.0,95,0.00,,,0.00,21,weatherlink.com 1.10,2013-05-12 13:47:00,
2013-05-12 07:02:00,42.8,42.0,30.12,NW,306,0.0,0.0,95,0.00,,,0.00,28,weatherlink.com 1.10,2013-05-12 14:02:00,
2013-05-12 07:17:00,43.7,42.0,30.12,NW,306,0.0,0.0,95,0.00,,,0.00,56,weatherlink.com 1.10,2013-05-12 14:17:00,
2013-05-12 07:32:00,45.9,45.0,30.13,West,278,0.0,0.0,95,0.00,,,0.00,211,weatherlink.com 1.10,2013-05-12 14:32:00,
2013-05-12 07:47:00,49.4,48.0,30.13,West,278,0.0,0.0,95,0.00,,,0.00,223,weatherlink.com 1.10,2013-05-12 14:47:00,
2013-05-12 08:02:00,50.5,49.0,30.13,West,279,0.0,0.0,95,0.00,,,0.00,255,weatherlink.com 1.10,2013-05-12 15:02:00,
2013-05-12 08:17:00,51.1,50.0,30.13,West,279,0.0,0.0,94,0.00,,,0.00,288,weatherlink.com 1.10,2013-05-12 15:17:00,
2013-05-12 08:32:00,54.1,53.0,30.13,SW,227,0.0,1.0,94,0.00,,,0.00,385,weatherlink.com 1.10,2013-05-12 15:32:00,
2013-05-12 08:47:00,55.6,53.0,30.13,SW,229,0.0,1.0,92,0.00,,,0.00,413,weatherlink.com 1.10,2013-05-12 15:47:00,
2013-05-12 09:02:00,58.6,55.0,30.14,West,269,0.0,2.0,87,0.00,,,0.00,485,weatherlink.com 1.10,2013-05-12 16:02:00,
2013-05-12 09:17:00,61.1,56.0,30.14,NNE,24,0.0,6.0,82,0.00,,,0.00,541,weatherlink.com 1.10,2013-05-12 16:17:00,
2013-05-12 09:32:00,62.9,56.0,30.13,NNE,15,0.0,5.0,78,0.00,,,0.00,585,weatherlink.com 1.10,2013-05-12 16:32:00,
2013-05-12 09:47:00,64.8,57.0,30.13,NNW,344,1.0,6.0,75,0.00,,,0.00,629,weatherlink.com 1.10,2013-05-12 16:47:00,
2013-05-12 10:02:00,65.7,57.0,30.13,NNE,21,2.0,6.0,73,0.00,,,0.00,675,weatherlink.com 1.10,2013-05-12 17:02:00,
2013-05-12 10:18:00,67.5,57.0,30.13,NNE,23,1.0,6.0,70,0.00,,,0.00,703,weatherlink.com 1.10,2013-05-12 17:18:00,
2013-05-12 10:33:00,69.2,58.0,30.13,NE,53,1.0,6.0,68,0.00,,,0.00,737,weatherlink.com 1.10,2013-05-12 17:33:00,
2013-05-12 10:48:00,71.1,59.0,30.13,NE,38,4.0,6.0,65,0.00,,,0.00,777,weatherlink.com 1.10,2013-05-12 17:48:00,
2013-05-12 11:03:00,72.4,60.0,30.12,NE,41,1.0,6.0,65,0.00,,,0.00,821,weatherlink.com 1.10,2013-05-12 18:03:00,
2013-05-12 11:18:00,73.7,62.0,30.12,North,11,5.0,7.0,66,0.00,,,0.00,810,weatherlink.com 1.10,2013-05-12 18:18:00,
2013-05-12 11:33:00,74.3,60.0,30.12,South,175,3.0,7.0,62,0.00,,,0.00,853,weatherlink.com 1.10,2013-05-12 18:33:00,
2013-05-12 11:48:00,74.8,62.0,30.12,SSE,152,1.0,7.0,64,0.00,,,0.00,940,weatherlink.com 1.10,2013-05-12 18:48:00,
2013-05-12 12:03:00,74.7,62.0,30.12,SSE,147,1.0,7.0,64,0.00,,,0.00,830,weatherlink.com 1.10,2013-05-12 19:03:00,
2013-05-12 12:18:00,75.2,62.0,30.11,SSE,155,5.0,8.0,63,0.00,,,0.00,972,weatherlink.com 1.10,2013-05-12 19:18:00,
2013-05-12 12:33:00,77.4,63.0,30.10,NNE,24,0.0,9.0,61,0.00,,,0.00,835,weatherlink.com 1.10,2013-05-12 19:33:00,
2013-05-12 12:48:00,79.1,62.0,30.10,WSW,247,6.0,10.0,57,0.00,,,0.00,846,weatherlink.com 1.10,2013-05-12 19:48:00,
2013-05-12 13:03:00,80.0,62.0,30.10,WSW,242,6.0,9.0,55,0.00,,,0.00,907,weatherlink.com 1.10,2013-05-12 20:03:00,
2013-05-12 13:18:00,80.0,62.0,30.10,WNW,284,3.0,12.0,55,0.00,,,0.00,944,weatherlink.com 1.10,2013-05-12 20:18:00,
2013-05-12 13:33:00,80.4,63.0,30.09,SSW,211,3.0,8.0,55,0.00,,,0.00,940,weatherlink.com 1.10,2013-05-12 20:33:00,
2013-05-12 13:48:00,80.2,62.0,30.09,SSW,213,4.0,9.0,54,0.00,,,0.00,930,weatherlink.com 1.10,2013-05-12 20:48:00,
2013-05-12 14:03:00,80.2,61.0,30.08,South,181,0.0,9.0,52,0.00,,,0.00,918,weatherlink.com 1.10,2013-05-12 21:03:00,
2013-05-12 14:18:00,81.4,61.0,30.08,SW,234,4.0,7.0,51,0.00,,,0.00,807,weatherlink.com 1.10,2013-05-12 21:18:00,
2013-05-12 14:33:00,81.7,61.0,30.08,SSW,213,1.0,7.0,49,0.00,,,0.00,879,weatherlink.com 1.10,2013-05-12 21:33:00,
2013-05-12 14:48:00,81.1,61.0,30.07,WSW,250,0.0,8.0,50,0.00,,,0.00,858,weatherlink.com 1.10,2013-05-12 21:48:00,
2013-05-12 15:03:00,82.6,61.0,30.07,West,259,1.0,7.0,49,0.00,,,0.00,830,weatherlink.com 1.10,2013-05-12 22:03:00,
2013-05-12 15:18:00,82.8,61.0,30.06,SSW,207,4.0,7.0,47,0.00,,,0.00,807,weatherlink.com 1.10,2013-05-12 22:18:00,
2013-05-12 15:33:00,82.4,60.0,30.05,SW,219,4.0,7.0,47,0.00,,,0.00,747,weatherlink.com 1.10,2013-05-12 22:33:00,
2013-05-12 15:48:00,82.4,60.0,30.05,WSW,242,2.0,12.0,47,0.00,,,0.00,724,weatherlink.com 1.10,2013-05-12 22:48:00,
2013-05-12 16:03:00,83.1,58.0,30.04,WNW,289,4.0,8.0,42,0.00,,,0.00,694,weatherlink.com 1.10,2013-05-12 23:03:00,
2013-05-12 16:18:00,83.4,51.0,30.04,WSW,241,3.0,10.0,33,0.00,,,0.00,673,weatherlink.com 1.10,2013-05-12 23:18:00,
2013-05-12 16:34:00,83.2,49.0,30.03,WSW,238,1.0,10.0,30,0.00,,,0.00,633,weatherlink.com 1.10,2013-05-12 23:34:00,
2013-05-12 16:49:00,82.4,48.0,30.03,South,190,4.0,10.0,30,0.00,,,0.00,580,weatherlink.com 1.10,2013-05-12 23:49:00,
2013-05-12 17:04:00,81.6,46.0,30.02,SSW,204,3.0,15.0,29,0.00,,,0.00,538,weatherlink.com 1.10,2013-05-13 00:04:00,
2013-05-12 17:19:00,81.4,44.0,30.02,WSW,249,6.0,15.0,27,0.00,,,0.00,483,weatherlink.com 1.10,2013-05-13 00:19:00,
2013-05-12 17:34:00,81.0,44.0,30.02,SSW,213,4.0,13.0,27,0.00,,,0.00,438,weatherlink.com 1.10,2013-05-13 00:34:00,
2013-05-12 17:49:00,80.7,44.0,30.01,SSW,205,4.0,13.0,27,0.00,,,0.00,390,weatherlink.com 1.10,2013-05-13 00:49:00,
2013-05-12 18:04:00,81.1,44.0,30.01,SW,214,6.0,10.0,27,0.00,,,0.00,352,weatherlink.com 1.10,2013-05-13 01:04:00,
2013-05-12 18:19:00,81.7,44.0,30.01,WSW,250,6.0,6.0,26,0.00,,,0.00,313,weatherlink.com 1.10,2013-05-13 01:19:00,
2013-05-12 18:34:00,81.5,44.0,30.00,WSW,255,0.0,7.0,27,0.00,,,0.00,258,weatherlink.com 1.10,2013-05-13 01:34:00,
2013-05-12 18:49:00,80.9,44.0,30.00,WNW,282,1.0,5.0,27,0.00,,,0.00,202,weatherlink.com 1.10,2013-05-13 01:49:00,
2013-05-12 19:04:00,80.2,45.0,30.00,WSW,250,1.0,5.0,29,0.00,,,0.00,151,weatherlink.com 1.10,2013-05-13 02:04:00,
2013-05-12 19:19:00,79.7,46.0,30.00,NNE,12,2.0,4.0,30,0.00,,,0.00,100,weatherlink.com 1.10,2013-05-13 02:19:00,
2013-05-12 19:34:00,77.0,55.0,30.00,NE,49,4.0,5.0,47,0.00,,,0.00,47,weatherlink.com 1.10,2013-05-13 02:34:00,
2013-05-12 19:49:00,70.5,54.0,30.00,NE,49,0.0,6.0,57,0.00,,,0.00,16,weatherlink.com 1.10,2013-05-13 02:49:00,
2013-05-12 20:04:00,67.3,54.0,30.01,NE,36,0.0,3.0,62,0.00,,,0.00,7,weatherlink.com 1.10,2013-05-13 03:04:00,
2013-05-12 20:19:00,64.4,53.0,30.01,NE,43,0.0,1.0,67,0.00,,,0.00,0,weatherlink.com 1.10,2013-05-13 03:19:00,
2013-05-12 20:34:00,62.5,53.0,30.02,NE,43,0.0,1.0,71,0.00,,,0.00,0,weatherlink.com 1.10,2013-05-13 03:34:00,
2013-05-12 20:49:00,60.7,53.0,30.02,NE,43,0.0,1.0,75,0.00,,,0.00,0,weatherlink.com 1.10,2013-05-13 03:49:00,
2013-05-12 21:04:00,59.2,52.0,30.02,NE,43,0.0,1.0,78,0.00,,,0.00,0,weatherlink.com 1.10,2013-05-13 04:04:00,
2013-05-12 21:19:00,57.8,52.0,30.03,NE,43,0.0,0.0,80,0.00,,,0.00,0,weatherlink.com 1.10,2013-05-13 04:19:00,
2013-05-12 21:34:00,56.7,52.0,30.03,NE,43,0.0,0.0,84,0.00,,,0.00,0,weatherlink.com 1.10,2013-05-13 04:34:00,
2013-05-12 21:49:00,55.9,51.0,30.03,NE,43,0.0,0.0,84,0.00,,,0.00,0,weatherlink.com 1.10,2013-05-13 04:49:00,
2013-05-12 22:04:00,54.8,51.0,30.03,NE,43,0.0,0.0,86,0.00,,,0.00,0,weatherlink.com 1.10,2013-05-13 05:04:00,
2013-05-12 22:19:00,53.7,50.0,30.04,NE,43,0.0,0.0,88,0.00,,,0.00,0,weatherlink.com 1.10,2013-05-13 05:19:00,
2013-05-12 22:34:00,53.3,50.0,30.03,NE,43,0.0,0.0,89,0.00,,,0.00,0,weatherlink.com 1.10,2013-05-13 05:34:00,
2013-05-12 22:49:00,52.9,50.0,30.03,NE,43,0.0,0.0,90,0.00,,,0.00,0,weatherlink.com 1.10,2013-05-13 05:49:00,
2013-05-12 23:04:00,52.0,49.0,30.03,NE,43,0.0,0.0,90,0.00,,,0.00,0,weatherlink.com 1.10,2013-05-13 06:04:00,
2013-05-12 23:19:00,51.2,48.0,30.03,NE,43,0.0,0.0,90,0.00,,,0.00,0,weatherlink.com 1.10,2013-05-13 06:19:00,
2013-05-12 23:34:00,50.9,48.0,30.03,NE,43,0.0,0.0,91,0.00,,,0.00,0,weatherlink.com 1.10,2013-05-13 06:34:00,
2013-05-12 23:49:00,50.0,48.0,30.02,NE,43,0.0,0.0,91,0.00,,,0.00,0,weatherlink.com 1.10,2013-05-13 06:49:00,